Time;durP1;ratioP1;P1;durP2;ratioP2;P2;SDS_P1;SDS_P2;PMS_P1;PMS_P2;Temp;Humidity;BMP_temperature;BMP_pressure;BME280_temperature;BME280_humidity;BME280_pressure;Samples;Min_cycle;Max_cycle;Signal;HPM_P1;HPM_P2
2023/09/09 00:04:21;;;;;;;41.05;36.67;;;;;19.40;101114.00;;;;10124009;29;20566;-85
2023/09/09 00:09:22;;;;;;;43.28;38.05;;;;;19.40;101123.00;;;;10147449;29;20215;-84
2023/09/09 00:14:25;;;;;;;48.70;40.95;;;;;19.30;101114.00;;;;10131574;29;20207;-84
2023/09/09 00:19:27;;;;;;;64.25;49.58;;;;;19.30;101118.00;;;;10096723;29;20215;-84
2023/09/09 00:24:29;;;;;;;63.60;53.00;;;;;19.20;101114.00;;;;10113609;29;20235;-87
2023/09/09 00:29:30;;;;;;;63.92;52.75;;;;;19.10;101109.00;;;;10113704;29;20231;-85
2023/09/09 00:34:33;;;;;;;62.72;51.25;;;;;19.10;101103.00;;;;10115904;29;20310;-82
2023/09/09 00:39:35;;;;;;;62.38;49.17;;;;;19.00;101109.00;;;;10091395;29;20243;-83
2023/09/09 00:44:36;;;;;;;88.05;67.95;;;;;19.00;101103.00;;;;10103352;29;20617;-82
2023/09/09 00:49:38;;;;;;;66.30;52.50;;;;;18.90;101102.00;;;;10096334;29;20243;-82
2023/09/09 00:54:39;;;;;;;65.50;55.17;;;;;18.80;101102.00;;;;10102848;29;20668;-82
2023/09/09 00:59:44;;;;;;;62.83;51.53;;;;;18.80;101092.00;;;;10098965;29;20688;-83
2023/09/09 01:04:45;;;;;;;65.03;49.88;;;;;18.80;101103.00;;;;10116275;29;20214;-82
2023/09/09 01:09:46;;;;;;;61.30;48.88;;;;;18.70;101105.00;;;;10084962;29;20892;-83
2023/09/09 01:14:48;;;;;;;62.38;50.05;;;;;18.70;101109.00;;;;10099036;29;20801;-82
2023/09/09 01:19:51;;;;;;;70.65;54.28;;;;;18.70;101094.00;;;;10083269;29;20278;-82
2023/09/09 01:24:52;;;;;;;65.82;55.55;;;;;18.60;101104.00;;;;10103465;29;20391;-83
2023/09/09 01:29:53;;;;;;;83.53;62.10;;;;;18.60;101099.00;;;;10118575;29;20768;-82
2023/09/09 01:34:55;;;;;;;115.78;83.82;;;;;18.60;101099.00;;;;10093551;29;20218;-82
2023/09/09 01:39:56;;;;;;;100.68;77.85;;;;;18.50;101099.00;;;;10082230;29;20216;-82
2023/09/09 01:44:58;;;;;;;138.00;96.43;;;;;18.50;101090.00;;;;10098031;29;20809;-80
2023/09/09 01:50:00;;;;;;;136.63;94.20;;;;;18.40;101099.00;;;;10071484;29;20311;-78
2023/09/09 01:55:01;;;;;;;119.97;86.88;;;;;18.40;101083.00;;;;10115268;29;20295;-78
2023/09/09 02:00:10;;;;;;;111.30;79.57;;;;;18.30;101084.00;;;;10066202;29;20227;-81
2023/09/09 02:05:14;;;;;;;122.68;86.95;;;;;18.30;101083.00;;;;10100225;29;20218;-76
2023/09/09 02:10:15;;;;;;;123.20;87.70;;;;;18.20;101090.00;;;;10100456;29;20232;-78
2023/09/09 02:15:17;;;;;;;115.75;84.63;;;;;18.20;101087.00;;;;10096801;29;20216;-79
2023/09/09 02:20:18;;;;;;;122.43;87.80;;;;;18.10;101076.00;;;;10114980;29;20306;-79
2023/09/09 02:25:19;;;;;;;122.75;87.75;;;;;18.10;101079.00;;;;10066437;29;20853;-79
2023/09/09 02:30:21;;;;;;;126.43;87.90;;;;;18.00;101085.00;;;;10082223;29;20260;-81
2023/09/09 02:35:23;;;;;;;135.07;90.97;;;;;18.00;101080.00;;;;10083927;29;20283;-78
2023/09/09 02:40:24;;;;;;;129.60;86.65;;;;;18.00;101078.00;;;;10114870;29;20215;-77
2023/09/09 02:45:25;;;;;;;130.52;91.10;;;;;17.90;101080.00;;;;10113385;29;20645;-79
2023/09/09 02:50:27;;;;;;;137.77;95.93;;;;;17.90;101073.00;;;;10093932;29;20231;-79
2023/09/09 04:04:42;;;;;;;107.22;78.35;;;;;17.50;101072.00;;;;12205552;23;20248;-83
2023/09/09 04:09:44;;;;;;;104.30;75.85;;;;;17.50;101076.00;;;;10110072;29;20627;-85
2023/09/09 04:14:45;;;;;;;113.13;79.40;;;;;17.50;101079.00;;;;10109990;29;20243;-86
2023/09/09 04:19:47;;;;;;;101.60;73.72;;;;;17.40;101074.00;;;;10094678;29;20223;-86
2023/09/09 04:24:49;;;;;;;99.68;73.85;;;;;17.40;101073.00;;;;10124139;29;20621;-84
2023/09/09 04:29:50;;;;;;;100.80;73.80;;;;;17.40;101082.00;;;;10123760;29;20223;-84
2023/09/09 04:34:52;;;;;;;110.13;80.55;;;;;17.30;101085.00;;;;10086325;29;20644;-85
2023/09/09 04:39:53;;;;;;;132.90;88.28;;;;;17.30;101086.00;;;;10084868;29;20264;-85
2023/09/09 04:44:55;;;;;;;131.23;89.95;;;;;17.30;101083.00;;;;10121936;29;20218;-85
2023/09/09 04:49:58;;;;;;;127.70;87.53;;;;;17.30;101080.00;;;;10108390;29;20226;-84
2023/09/09 04:55:00;;;;;;;126.63;87.88;;;;;17.20;101084.00;;;;10123558;29;20211;-84
2023/09/09 05:00:06;;;;;;;121.35;83.03;;;;;17.20;101085.00;;;;10107466;29;20242;-84
2023/09/09 05:05:09;;;;;;;126.53;85.45;;;;;17.20;101084.00;;;;10107806;29;20314;-83
2023/09/09 05:10:11;;;;;;;133.02;88.97;;;;;17.20;101085.00;;;;10096867;29;20239;-85
2023/09/09 05:15:13;;;;;;;136.52;90.40;;;;;17.20;101093.00;;;;10085304;29;20529;-83
2023/09/09 05:20:15;;;;;;;129.65;87.30;;;;;17.30;101087.00;;;;10109468;29;20207;-80
2023/09/09 05:25:16;;;;;;;121.75;85.60;;;;;17.30;101083.00;;;;10093367;29;20605;-80
2023/09/09 05:30:18;;;;;;;146.00;93.15;;;;;17.30;101096.00;;;;10087031;29;20237;-80
2023/09/09 05:35:19;;;;;;;139.75;93.45;;;;;17.40;101099.00;;;;10084264;29;20219;-81
2023/09/09 05:40:21;;;;;;;134.30;89.05;;;;;17.50;101096.00;;;;10092340;29;20287;-80
2023/09/09 05:45:23;;;;;;;132.75;92.93;;;;;17.60;101086.00;;;;10111608;29;20253;-82
2023/09/09 05:50:24;;;;;;;134.07;90.28;;;;;17.80;101078.00;;;;10103140;29;20641;-80
2023/09/09 05:55:26;;;;;;;134.52;92.90;;;;;18.00;101081.00;;;;10106077;29;20234;-82
2023/09/09 06:00:28;;;;;;;145.50;98.75;;;;;18.20;101099.00;;;;10082581;29;20559;-79
2023/09/09 06:05:30;;;;;;;146.75;98.03;;;;;18.40;101103.00;;;;10115765;29;20285;-80
2023/09/09 06:10:31;;;;;;;142.32;98.18;;;;;18.60;101094.00;;;;10099657;29;20896;-79
2023/09/09 06:15:32;;;;;;;154.43;100.65;;;;;18.80;101105.00;;;;10101152;29;20229;-80
2023/09/09 06:20:34;;;;;;;141.05;95.85;;;;;19.10;101112.00;;;;10121487;29;20207;-81
2023/09/09 06:25:36;;;;;;;141.63;96.00;;;;;19.40;101116.00;;;;10089813;29;20215;-80
2023/09/09 06:30:44;;;;;;;136.25;92.25;;;;;19.80;101126.00;;;;10124977;29;20768;-80
2023/09/09 06:35:50;;;;;;;118.07;85.32;;;;;20.20;101133.00;;;;10139956;29;20226;-80
2023/09/09 06:40:54;;;;;;;103.72;79.68;;;;;20.60;101129.00;;;;10072713;29;20650;-80
2023/09/09 06:45:56;;;;;;;96.93;74.50;;;;;20.90;101131.00;;;;10091566;29;20266;-80
2023/09/09 06:50:58;;;;;;;95.22;73.90;;;;;21.20;101133.00;;;;10120463;29;20259;-80
2023/09/09 06:55:59;;;;;;;104.05;81.55;;;;;21.50;101141.00;;;;10129928;29;20202;-80
2023/09/09 07:01:02;;;;;;;101.53;80.25;;;;;21.80;101137.00;;;;10106234;29;20220;-80
2023/09/09 07:06:03;;;;;;;97.70;79.00;;;;;22.00;101138.00;;;;10124531;29;20284;-81
2023/09/09 07:11:05;;;;;;;103.22;82.93;;;;;22.20;101139.00;;;;10091487;29;20739;-81
2023/09/09 07:16:06;;;;;;;110.72;88.35;;;;;22.40;101147.00;;;;10126468;29;20762;-81
2023/09/09 07:21:07;;;;;;;105.55;88.78;;;;;22.70;101143.00;;;;10126254;29;20324;-81
2023/09/09 07:26:09;;;;;;;111.45;89.43;;;;;22.90;101151.00;;;;10114288;29;20670;-81
2023/09/09 07:31:10;;;;;;;110.10;86.88;;;;;23.20;101146.00;;;;10111457;29;20239;-81
2023/09/09 07:36:11;;;;;;;96.57;81.70;;;;;23.40;101148.00;;;;10123481;29;20277;-80
2023/09/09 07:41:13;;;;;;;100.68;85.43;;;;;23.70;101155.00;;;;10113218;29;20239;-80
2023/09/09 07:46:15;;;;;;;97.18;81.20;;;;;23.90;101157.00;;;;10124232;29;20316;-80
2023/09/09 07:51:16;;;;;;;92.30;78.90;;;;;24.10;101161.00;;;;10135124;29;20239;-79
2023/09/09 07:56:18;;;;;;;85.93;76.68;;;;;24.40;101156.00;;;;10123475;29;20227;-80
2023/09/09 08:01:19;;;;;;;84.45;67.80;;;;;24.80;101168.00;;;;10098001;29;20218;-82
2023/09/09 08:06:20;;;;;;;69.40;61.88;;;;;25.10;101168.00;;;;10107095;29;20210;-80
2023/09/09 08:11:22;;;;;;;65.05;57.42;;;;;25.40;101177.00;;;;10101442;29;20734;-81
2023/09/09 08:16:23;;;;;;;48.88;43.60;;;;;25.70;101170.00;;;;10075106;29;21113;-80
2023/09/09 08:21:25;;;;;;;46.95;40.20;;;;;26.00;101169.00;;;;10074084;29;20216;-79
2023/09/09 08:26:27;;;;;;;43.28;38.58;;;;;26.30;101183.00;;;;10128007;29;20215;-82
2023/09/09 08:31:29;;;;;;;37.58;32.20;;;;;26.80;101186.00;;;;10107994;29;20227;-79
2023/09/09 08:36:30;;;;;;;31.17;27.92;;;;;27.30;101183.00;;;;10113245;29;20287;-81
2023/09/09 08:41:38;;;;;;;27.63;24.55;;;;;27.90;101184.00;;;;10107921;29;20216;-80
2023/09/09 08:46:39;;;;;;;23.50;19.27;;;;;28.20;101179.00;;;;10112257;29;20223;-78
2023/09/09 08:51:48;;;;;;;22.23;19.63;;;;;28.50;101178.00;;;;10106015;29;21235;-79
2023/09/09 08:56:49;;;;;;;20.13;15.95;;;;;28.90;101179.00;;;;10108739;29;20238;-78
2023/09/09 09:01:51;;;;;;;13.63;12.23;;;;;29.20;101187.00;;;;10098076;29;20589;-79
2023/09/09 09:06:55;;;;;;;17.00;14.90;;;;;29.50;101187.00;;;;10127849;29;20215;-80
2023/09/09 09:12:00;;;;;;;16.27;10.55;;;;;29.80;101185.00;;;;10129380;29;20679;-79
2023/09/09 09:17:03;;;;;;;17.35;14.32;;;;;30.10;101180.00;;;;10127593;29;20227;-80
2023/09/09 09:22:04;;;;;;;11.70;10.50;;;;;30.40;101187.00;;;;10114907;29;20276;-79
2023/09/09 09:27:10;;;;;;;9.50;8.57;;;;;30.50;101193.00;;;;10112967;29;20247;-78
2023/09/09 09:32:12;;;;;;;9.18;7.88;;;;;30.70;101192.00;;;;10131021;29;20243;-78
2023/09/09 09:37:17;;;;;;;9.15;7.63;;;;;31.00;101194.00;;;;10123010;29;20291;-78
2023/09/09 09:42:18;;;;;;;7.85;7.07;;;;;31.20;101186.00;;;;10108073;29;20486;-78
2023/09/09 09:47:20;;;;;;;8.25;7.00;;;;;31.40;101183.00;;;;10115915;29;20238;-79
2023/09/09 09:52:23;;;;;;;10.93;7.05;;;;;31.70;101181.00;;;;10118822;29;20239;-80
2023/09/09 10:03:40;;;;;;;9.70;7.60;;;;;32.00;101178.00;;;;12322627;23;20215;31
2023/09/09 10:26:46;;;;;;;10.77;6.60;;;;;32.80;101178.00;;;;3013790;23;20529;-81
2023/09/09 11:06:27;;;;;;;9.25;7.53;;;;;34.00;101159.00;;;;9211837;23;20411;-81
2023/09/09 11:11:37;;;;;;;7.88;6.72;;;;;34.20;101154.00;;;;10105990;29;20247;-83
2023/09/09 11:16:40;;;;;;;9.73;6.88;;;;;34.30;101158.00;;;;10104760;29;20246;-80
2023/09/09 11:21:44;;;;;;;13.93;7.53;;;;;34.30;101156.00;;;;10117280;29;20255;-81
2023/09/09 11:26:51;;;;;;;8.07;7.28;;;;;34.40;101156.00;;;;10111694;29;20250;-81
2023/09/09 11:31:52;;;;;;;8.95;7.55;;;;;34.60;101149.00;;;;10120921;29;20230;-82
2023/09/09 11:36:54;;;;;;;8.10;6.30;;;;;34.60;101152.00;;;;10124843;29;20223;-80
2023/09/09 11:41:55;;;;;;;7.65;6.93;;;;;34.60;101146.00;;;;10122057;29;20634;-81
2023/09/09 11:46:58;;;;;;;7.28;6.57;;;;;34.70;101142.00;;;;10110213;29;20233;-80
2023/09/09 11:52:00;;;;;;;8.75;6.32;;;;;34.80;101132.00;;;;10093313;29;20319;-80
2023/09/09 11:57:08;;;;;;;12.93;6.20;;;;;34.90;101133.00;;;;10087676;29;20211;-83
2023/09/09 12:02:21;;;;;;;11.57;6.20;;;;;34.90;101132.00;;;;10075242;29;20212;-80
2023/09/09 12:07:26;;;;;;;6.85;6.13;;;;;34.90;101132.00;;;;10084987;29;20299;-81
2023/09/09 12:12:28;;;;;;;10.15;6.25;;;;;34.70;101129.00;;;;10081168;29;20260;-81
2023/09/09 12:17:30;;;;;;;10.45;6.78;;;;;34.60;101130.00;;;;10084733;29;20392;-78
2023/09/09 12:22:34;;;;;;;8.43;6.32;;;;;34.70;101132.00;;;;10084296;29;20220;-79
2023/09/09 12:27:40;;;;;;;9.63;5.70;;;;;34.90;101130.00;;;;10075231;29;20258;-79
2023/09/09 12:32:41;;;;;;;9.23;6.22;;;;;34.80;101125.00;;;;10087561;29;20243;-77
2023/09/09 12:37:43;;;;;;;11.65;6.22;;;;;34.70;101128.00;;;;10093781;29;20298;-79
2023/09/09 12:42:44;;;;;;;8.65;6.60;;;;;34.70;101130.00;;;;10087227;29;20616;-79
2023/09/09 12:47:46;;;;;;;11.25;6.15;;;;;34.70;101124.00;;;;10084267;29;20208;-78
2023/09/09 12:52:47;;;;;;;9.80;5.72;;;;;34.90;101122.00;;;;10077214;29;20785;-78
2023/09/09 12:57:48;;;;;;;8.80;6.25;;;;;35.00;101119.00;;;;10079330;29;20237;-79
2023/09/09 13:02:50;;;;;;;9.32;6.07;;;;;34.90;101127.00;;;;10073020;29;20247;-80
2023/09/09 13:07:51;;;;;;;7.68;5.95;;;;;34.70;101125.00;;;;10074401;29;20235;-78
2023/09/09 13:12:54;;;;;;;12.07;6.43;;;;;34.40;101121.00;;;;10071660;29;20238;-80
2023/09/09 13:17:55;;;;;;;10.45;6.10;;;;;34.30;101116.00;;;;10046646;29;20205;-78
2023/09/09 13:22:57;;;;;;;8.40;5.88;;;;;34.30;101110.00;;;;10086862;29;20267;-78
2023/09/09 13:27:59;;;;;;;11.45;6.30;;;;;34.30;101116.00;;;;10076903;29;20221;-80
2023/09/09 13:33:03;;;;;;;8.32;5.80;;;;;34.30;101105.00;;;;10079016;29;20224;-77
2023/09/09 13:38:05;;;;;;;14.20;5.82;;;;;34.00;101101.00;;;;10078857;29;20880;-80
2023/09/09 13:43:06;;;;;;;13.05;6.90;;;;;33.90;101103.00;;;;10089244;29;20316;-77
2023/09/09 13:48:08;;;;;;;10.70;6.38;;;;;33.90;101100.00;;;;10084876;29;20598;-77
2023/09/09 13:53:09;;;;;;;7.22;6.28;;;;;33.90;101095.00;;;;10080813;29;20264;-76
2023/09/09 13:58:11;;;;;;;10.00;6.35;;;;;33.90;101099.00;;;;10077493;29;20220;-81
2023/09/09 14:03:12;;;;;;;12.20;6.63;;;;;33.90;101099.00;;;;10078508;29;20219;-76
2023/09/09 14:08:14;;;;;;;10.77;6.10;;;;;33.90;101104.00;;;;10080084;29;20217;-78
2023/09/09 14:13:15;;;;;;;9.38;6.40;;;;;33.90;101101.00;;;;10073798;29;20676;-80
2023/09/09 14:18:17;;;;;;;9.35;7.18;;;;;34.10;101103.00;;;;10063433;29;20630;-79
2023/09/09 14:23:19;;;;;;;10.50;5.78;;;;;34.20;101094.00;;;;10061243;29;20216;-77
2023/09/09 14:28:20;;;;;;;11.57;6.25;;;;;33.80;101095.00;;;;10064051;29;20208;-76
2023/09/09 14:33:22;;;;;;;11.75;6.72;;;;;33.10;101096.00;;;;10066004;29;20343;-78
2023/09/09 14:38:23;;;;;;;18.23;6.63;;;;;32.70;101084.00;;;;10084469;29;20208;-83
2023/09/09 14:43:25;;;;;;;10.10;6.68;;;;;32.70;101085.00;;;;10079185;29;20599;-83
2023/09/09 14:48:26;;;;;;;12.10;6.93;;;;;32.30;101089.00;;;;10094733;29;20224;-83
2023/09/09 14:53:28;;;;;;;14.05;6.63;;;;;31.90;101088.00;;;;10088065;29;20292;-83
2023/09/09 14:58:29;;;;;;;10.20;6.65;;;;;31.80;101089.00;;;;10080096;29;20216;-83
2023/09/09 15:03:30;;;;;;;11.75;7.00;;;;;31.50;101081.00;;;;10074193;29;20652;-84
2023/09/09 15:08:31;;;;;;;16.42;6.85;;;;;31.40;101076.00;;;;10082630;29;20234;-83
2023/09/09 15:13:33;;;;;;;10.60;7.10;;;;;31.40;101081.00;;;;10082741;29;20217;-82
2023/09/09 15:18:35;;;;;;;12.00;6.20;;;;;31.20;101082.00;;;;10092965;29;20220;-83
2023/09/09 15:23:37;;;;;;;9.43;6.82;;;;;31.00;101085.00;;;;10093138;29;20406;-83
2023/09/09 15:28:38;;;;;;;9.13;6.95;;;;;30.80;101084.00;;;;10069833;29;20259;-82
2023/09/09 15:33:40;;;;;;;13.50;7.18;;;;;30.70;101088.00;;;;10092988;29;20221;-81
2023/09/09 15:38:42;;;;;;;8.45;7.15;;;;;30.60;101087.00;;;;10092133;29;20304;-83
2023/09/09 15:43:49;;;;;;;12.77;7.47;;;;;30.50;101085.00;;;;10096197;29;20620;-82
2023/09/09 15:48:50;;;;;;;13.50;6.97;;;;;30.40;101085.00;;;;10093252;29;20596;-78
2023/09/09 15:53:51;;;;;;;14.45;7.20;;;;;30.30;101080.00;;;;10088688;29;20240;-79
2023/09/09 15:58:53;;;;;;;11.60;6.85;;;;;30.20;101089.00;;;;10081824;29;20219;-79
2023/09/09 16:03:54;;;;;;;11.85;7.13;;;;;30.10;101088.00;;;;10093396;29;20216;-79
2023/09/09 16:08:56;;;;;;;11.48;7.00;;;;;30.00;101082.00;;;;10083219;29;20258;-79
2023/09/09 16:13:57;;;;;;;10.98;7.97;;;;;29.90;101081.00;;;;10092277;29;20295;-80
2023/09/09 16:19:00;;;;;;;11.30;7.32;;;;;29.90;101076.00;;;;10068913;29;20487;-81
2023/09/09 16:24:01;;;;;;;11.73;8.20;;;;;29.70;101082.00;;;;10074330;29;20284;-80
2023/09/09 16:29:02;;;;;;;18.55;7.53;;;;;29.60;101082.00;;;;10061038;29;20224;-80
2023/09/09 16:34:04;;;;;;;12.35;7.40;;;;;29.50;101083.00;;;;10071635;29;20212;-79
2023/09/09 16:39:05;;;;;;;8.60;7.20;;;;;29.40;101083.00;;;;10059127;29;20902;-80
2023/09/09 16:44:07;;;;;;;10.15;7.15;;;;;29.20;101083.00;;;;10081623;29;20707;-80
2023/09/09 16:49:10;;;;;;;11.02;7.28;;;;;29.10;101092.00;;;;10055240;29;20268;-80
2023/09/09 16:54:11;;;;;;;14.88;8.30;;;;;29.00;101087.00;;;;10055100;29;20212;-80
2023/09/09 16:59:13;;;;;;;13.70;7.95;;;;;28.90;101090.00;;;;10085735;29;20239;-82
2023/09/09 17:04:14;;;;;;;12.57;8.32;;;;;28.80;101094.00;;;;10092753;29;20308;-81
2023/09/09 17:09:15;;;;;;;15.07;7.63;;;;;28.60;101093.00;;;;10048506;29;20236;-82
2023/09/09 17:14:18;;;;;;;8.85;7.82;;;;;28.50;101101.00;;;;10058974;29;20215;-81
2023/09/09 17:19:19;;;;;;;16.25;8.15;;;;;28.30;101105.00;;;;10068936;29;20224;-83
2023/09/09 17:24:20;;;;;;;12.27;8.07;;;;;28.20;101110.00;;;;10077385;29;20251;-80
2023/09/09 17:29:22;;;;;;;12.57;8.00;;;;;28.00;101110.00;;;;10073277;29;20419;-83
2023/09/09 17:34:23;;;;;;;11.52;7.82;;;;;27.80;101103.00;;;;10071907;29;20615;-81
2023/09/09 17:39:26;;;;;;;12.57;8.10;;;;;27.60;101108.00;;;;10086598;29;20219;-81
2023/09/09 17:44:28;;;;;;;10.02;8.07;;;;;27.50;101109.00;;;;10068580;29;20583;-81
2023/09/09 17:49:29;;;;;;;9.88;8.15;;;;;27.30;101112.00;;;;10071031;29;20235;-82
2023/09/09 17:54:31;;;;;;;13.55;8.05;;;;;27.20;101107.00;;;;10082844;29;20536;-83
2023/09/09 17:59:32;;;;;;;10.10;7.95;;;;;27.00;101111.00;;;;10065147;29;20208;-82
2023/09/09 18:04:34;;;;;;;11.57;8.38;;;;;27.00;101109.00;;;;10068133;29;20205;-81
2023/09/09 18:09:35;;;;;;;12.02;7.75;;;;;26.90;101112.00;;;;10058133;29;20216;-81
2023/09/09 18:14:38;;;;;;;11.52;7.90;;;;;26.70;101107.00;;;;10049014;29;20216;-85
2023/09/09 18:19:40;;;;;;;12.25;7.82;;;;;26.60;101109.00;;;;10049464;29;20223;-84
2023/09/09 18:24:46;;;;;;;13.40;8.30;;;;;26.40;101109.00;;;;10068249;29;20214;-81
2023/09/09 18:29:48;;;;;;;10.95;8.10;;;;;26.30;101109.00;;;;10068401;29;20232;-80
2023/09/09 18:34:49;;;;;;;10.77;7.65;;;;;26.20;101119.00;;;;10060845;29;20221;-81
2023/09/09 18:39:51;;;;;;;13.02;8.90;;;;;26.10;101115.00;;;;10091379;29;20215;-81
2023/09/09 18:44:53;;;;;;;12.55;8.65;;;;;26.00;101115.00;;;;10049926;29;20209;-80
2023/09/09 18:49:55;;;;;;;17.98;7.90;;;;;25.80;101123.00;;;;10068297;29;20232;-81
2023/09/09 18:54:57;;;;;;;18.13;9.10;;;;;25.70;101125.00;;;;10057331;29;20200;-81
2023/09/09 18:59:59;;;;;;;13.55;8.48;;;;;25.50;101136.00;;;;10053443;29;20902;-81
2023/09/09 19:05:02;;;;;;;14.75;9.10;;;;;25.40;101133.00;;;;10074563;29;20243;-81
2023/09/09 19:10:08;;;;;;;13.88;8.88;;;;;25.30;101138.00;;;;10086003;29;20240;-82
2023/09/09 19:15:12;;;;;;;14.07;8.85;;;;;25.20;101145.00;;;;10058351;29;20409;-81
2023/09/09 19:20:15;;;;;;;16.92;11.00;;;;;25.10;101142.00;;;;10086931;29;20277;-81
2023/09/09 19:25:18;;;;;;;14.82;8.90;;;;;25.00;101145.00;;;;10083095;29;20231;-83
2023/09/09 19:30:25;;;;;;;15.05;9.48;;;;;25.00;101151.00;;;;10059536;29;20239;-82
2023/09/09 19:35:27;;;;;;;16.77;9.25;;;;;24.90;101161.00;;;;10073267;29;20216;-80
2023/09/09 19:40:29;;;;;;;17.52;8.75;;;;;24.80;101155.00;;;;10044074;29;20245;-81
2023/09/09 19:45:31;;;;;;;15.68;9.60;;;;;24.70;101161.00;;;;10070470;29;20587;-81
2023/09/09 19:50:33;;;;;;;12.75;9.93;;;;;24.60;101159.00;;;;10054212;29;20232;-80
2023/09/09 19:55:36;;;;;;;14.45;9.93;;;;;24.40;101164.00;;;;10088790;29;20212;-81
2023/09/09 20:00:38;;;;;;;11.45;9.57;;;;;24.40;101169.00;;;;10073089;29;20908;-81
2023/09/09 20:05:49;;;;;;;15.60;10.23;;;;;24.20;101167.00;;;;10071069;29;20289;-80
2023/09/09 20:10:53;;;;;;;14.10;9.75;;;;;24.10;101168.00;;;;10064308;29;21047;-81
2023/09/09 20:15:55;;;;;;;14.98;10.30;;;;;24.00;101173.00;;;;10084287;29;20204;-83
2023/09/09 20:20:59;;;;;;;15.82;10.82;;;;;23.90;101168.00;;;;10072258;29;20212;-82
2023/09/09 20:26:01;;;;;;;14.93;10.55;;;;;23.80;101171.00;;;;10072853;29;20243;-82
2023/09/09 20:31:02;;;;;;;14.98;10.90;;;;;23.70;101170.00;;;;10086633;29;20236;-80
2023/09/09 20:36:05;;;;;;;14.57;11.05;;;;;23.80;101168.00;;;;10078132;29;20263;-80
2023/09/09 20:41:08;;;;;;;14.48;10.60;;;;;23.70;101167.00;;;;10085030;29;20204;-80
2023/09/09 21:56:55;;;;;;;16.38;12.55;;;;;22.60;101136.00;;;;3316628;23;20395;-90
2023/09/09 22:02:11;;;;;;;20.02;12.02;;;;;22.50;101132.00;;;;10004943;23;20378;-80
2023/09/09 22:07:14;;;;;;;16.67;11.48;;;;;22.50;101131.00;;;;10014460;29;20212;-80
2023/09/09 22:12:15;;;;;;;15.15;11.95;;;;;22.40;101138.00;;;;10004382;29;21941;-79
2023/09/09 22:17:17;;;;;;;18.98;12.80;;;;;22.30;101136.00;;;;10016144;29;20468;-79
2023/09/09 22:22:18;;;;;;;14.45;11.15;;;;;22.20;101135.00;;;;10037247;29;20227;-81
2023/09/09 22:27:20;;;;;;;17.35;11.88;;;;;22.10;101126.00;;;;9996064;29;20238;-81
2023/09/09 22:32:22;;;;;;;14.90;11.63;;;;;22.00;101131.00;;;;10013188;29;20239;-80
2023/09/09 22:37:23;;;;;;;19.23;13.40;;;;;21.90;101119.00;;;;10016850;29;20215;-81
2023/09/09 22:42:25;;;;;;;22.13;13.80;;;;;21.80;101127.00;;;;10036809;29;20223;-79
2023/09/09 22:47:27;;;;;;;16.02;13.07;;;;;21.70;101120.00;;;;10021042;29;20228;-81
2023/09/09 22:52:28;;;;;;;16.90;14.20;;;;;21.70;101119.00;;;;10026518;29;20311;-80
2023/09/09 22:57:30;;;;;;;15.15;13.35;;;;;21.60;101120.00;;;;10011055;29;22004;-81
2023/09/09 23:02:31;;;;;;;17.77;14.38;;;;;21.50;101115.00;;;;10026425;29;20228;-81
2023/09/09 23:07:34;;;;;;;15.30;13.02;;;;;21.50;101115.00;;;;10033213;29;20958;-79
2023/09/09 23:12:51;;;;;;;16.30;13.85;;;;;21.40;101120.00;;;;10033177;29;21442;-79
2023/09/09 23:17:52;;;;;;;23.15;14.15;;;;;21.40;101119.00;;;;10001669;29;20746;-79
2023/09/09 23:22:54;;;;;;;14.40;12.60;;;;;21.30;101122.00;;;;10019437;29;20216;-78
2023/09/09 23:27:55;;;;;;;16.45;13.90;;;;;21.30;101115.00;;;;10020490;29;20948;-80
2023/09/09 23:32:59;;;;;;;15.63;13.07;;;;;21.30;101109.00;;;;10040159;29;22043;-81
2023/09/09 23:38:00;;;;;;;19.15;13.60;;;;;21.30;101107.00;;;;10031894;29;20224;-80
2023/09/09 23:43:02;;;;;;;15.85;12.30;;;;;21.30;101110.00;;;;10010267;29;20220;-80
2023/09/09 23:48:04;;;;;;;13.90;11.80;;;;;21.30;101111.00;;;;10012678;29;20865;-81
2023/09/09 23:53:05;;;;;;;15.75;12.13;;;;;21.30;101111.00;;;;10028597;29;20323;-81
2023/09/09 23:58:07;;;;;;;16.02;12.00;;;;;21.30;101113.00;;;;10016315;29;20222;-80
